createdAt,value
2018-04-25T00:01:11.093Z,8.70
2018-04-25T00:03:50.037Z,8.70
2018-04-25T00:06:23.732Z,8.70
2018-04-25T00:08:56.698Z,8.70
2018-04-25T00:11:30.363Z,8.70
2018-04-25T00:14:04.108Z,8.60
2018-04-25T00:16:37.111Z,8.60
2018-04-25T00:19:10.409Z,8.60
2018-04-25T00:21:44.072Z,8.60
2018-04-25T00:24:17.747Z,8.50
2018-04-25T00:26:51.605Z,8.50
2018-04-25T00:29:25.249Z,8.50
2018-04-25T00:32:00.663Z,8.50
2018-04-25T00:34:35.270Z,8.50
2018-04-25T00:37:09.916Z,8.40
2018-04-25T00:39:43.541Z,8.50
2018-04-25T00:42:17.332Z,8.50
2018-04-25T00:44:50.640Z,8.40
2018-04-25T00:47:24.427Z,8.40
2018-04-25T00:49:57.401Z,8.50
2018-04-25T00:52:30.439Z,8.40
2018-04-25T00:55:03.756Z,8.40
2018-04-25T00:57:36.803Z,8.40
2018-04-25T01:00:10.549Z,8.40
2018-04-25T01:02:43.551Z,8.40
2018-04-25T01:05:16.869Z,8.40
2018-04-25T01:07:50.974Z,8.40
2018-04-25T01:10:24.937Z,8.40
2018-04-25T01:12:58.293Z,8.40
2018-04-25T01:15:32.029Z,8.40
2018-04-25T01:18:05.069Z,8.40
2018-04-25T01:20:38.825Z,8.40
2018-04-25T01:23:11.628Z,8.40
2018-04-25T01:25:44.429Z,8.40
2018-04-25T01:28:24.374Z,8.40
2018-04-25T01:34:26.425Z,8.40
2018-04-25T01:37:14.357Z,8.40
2018-04-25T01:40:01.985Z,8.40
2018-04-25T01:42:56.043Z,8.40
2018-04-25T01:45:46.820Z,8.40
2018-04-25T01:48:28.473Z,8.40
2018-04-25T01:51:01.088Z,8.30
2018-04-25T01:53:47.213Z,8.40
2018-04-25T01:56:32.203Z,8.30
2018-04-25T01:59:17.089Z,8.30
2018-04-25T02:01:50.455Z,8.30
2018-04-25T02:04:24.201Z,8.30
2018-04-25T02:06:57.986Z,8.30
2018-04-25T02:09:31.755Z,8.20
2018-04-25T02:12:05.528Z,8.20
2018-04-25T02:14:39.297Z,8.20
2018-04-25T02:17:14.786Z,8.20
2018-04-25T02:19:48.543Z,8.20
2018-04-25T02:22:22.325Z,8.20
2018-04-25T02:24:56.089Z,8.20
2018-04-25T02:27:29.849Z,8.20
2018-04-25T02:30:03.615Z,8.20
2018-04-25T02:32:37.368Z,8.20
2018-04-25T02:35:11.079Z,8.20
2018-04-25T02:37:44.612Z,8.20
2018-04-25T02:40:18.010Z,8.20
2018-04-25T02:42:51.756Z,8.20
2018-04-25T02:45:25.475Z,8.20
2018-04-25T02:47:59.224Z,8.20
2018-04-25T02:50:32.946Z,8.20
2018-04-25T02:53:06.712Z,8.20
2018-04-25T02:55:40.475Z,8.20
2018-04-25T02:58:14.989Z,8.20
2018-04-25T03:00:48.709Z,8.20
2018-04-25T03:03:32.673Z,8.20
2018-04-25T03:06:10.784Z,8.20
2018-04-25T03:08:44.573Z,8.20
2018-04-25T03:11:18.324Z,8.20
2018-04-25T03:13:52.338Z,8.20
2018-04-25T03:16:25.868Z,8.30
2018-04-25T03:19:00.383Z,8.30
2018-04-25T03:21:35.868Z,8.30
2018-04-25T03:24:09.621Z,8.30
2018-04-25T03:26:43.366Z,8.30
2018-04-25T03:29:18.111Z,8.40
2018-04-25T03:31:51.864Z,8.40
2018-04-25T03:34:26.386Z,8.40
2018-04-25T03:37:00.167Z,8.40
2018-04-25T03:39:33.918Z,8.40
2018-04-25T03:42:07.662Z,8.40
2018-04-25T03:44:42.351Z,8.50
2018-04-25T03:47:16.112Z,8.50
2018-04-25T03:49:50.792Z,8.50
2018-04-25T03:52:24.535Z,8.50
2018-04-25T03:54:58.297Z,8.50
2018-04-25T03:57:32.047Z,8.60
2018-04-25T04:00:06.740Z,8.60
2018-04-25T04:02:40.493Z,8.60
2018-04-25T04:05:14.240Z,8.60
2018-04-25T04:07:47.988Z,8.60
2018-04-25T04:10:22.498Z,8.70
2018-04-25T04:12:56.319Z,8.60
2018-04-25T04:15:30.208Z,8.70
2018-04-25T04:18:03.960Z,8.80
2018-04-25T04:20:37.709Z,8.90
2018-04-25T04:23:11.451Z,8.90
2018-04-25T04:25:46.020Z,9.00
2018-04-25T04:28:19.772Z,9.00
2018-04-25T04:30:53.555Z,9.10
2018-04-25T04:33:28.070Z,9.20
2018-04-25T04:36:03.577Z,9.30
2018-04-25T04:38:37.113Z,9.30
2018-04-25T04:41:11.652Z,9.40
2018-04-25T04:43:45.438Z,9.40
2018-04-25T04:46:19.973Z,9.50
2018-04-25T04:48:54.498Z,9.50
2018-04-25T04:51:29.982Z,9.60
2018-04-25T04:54:04.719Z,9.60
2018-04-25T04:56:39.436Z,9.60
2018-04-25T04:59:14.104Z,9.70
2018-04-25T05:01:49.653Z,9.70
2018-04-25T05:04:25.145Z,9.80
2018-04-25T05:06:58.907Z,9.70
2018-04-25T05:09:33.431Z,9.80
2018-04-25T05:12:08.160Z,9.80
2018-04-25T05:14:41.920Z,9.90
2018-04-25T05:17:15.678Z,9.90
2018-04-25T05:19:50.408Z,10.00
2018-04-25T05:22:25.127Z,10.10
2018-04-25T05:24:59.846Z,10.10
2018-04-25T05:27:33.600Z,10.20
2018-04-25T05:30:08.330Z,10.20
2018-04-25T05:32:42.102Z,10.20
2018-04-25T05:35:15.885Z,10.30
2018-04-25T05:37:50.294Z,10.30
2018-04-25T05:40:25.761Z,10.50
2018-04-25T05:42:59.522Z,10.50
2018-04-25T05:45:33.063Z,10.70
2018-04-25T05:48:06.643Z,10.80
2018-04-25T05:50:41.310Z,11.00
2018-04-25T05:53:15.068Z,11.10
2018-04-25T05:55:49.636Z,11.30
2018-04-25T05:58:23.392Z,11.30
2018-04-25T06:00:57.153Z,11.60
2018-04-25T06:03:31.861Z,11.50
2018-04-25T06:06:06.600Z,11.70
2018-04-25T06:08:40.353Z,11.70
2018-04-25T06:11:15.100Z,11.70
2018-04-25T06:13:48.866Z,11.70
2018-04-25T06:16:23.163Z,11.80
2018-04-25T06:18:57.897Z,11.80
2018-04-25T06:21:32.606Z,11.80
2018-04-25T06:24:06.365Z,12.00
2018-04-25T06:26:42.900Z,12.00
2018-04-25T06:29:17.413Z,12.10
2018-04-25T06:31:53.300Z,12.10
2018-04-25T06:34:30.980Z,12.10
2018-04-25T06:37:05.330Z,12.10
2018-04-25T06:39:40.630Z,12.10
2018-04-25T06:42:15.157Z,12.30
2018-04-25T06:44:50.757Z,12.40
2018-04-25T06:47:25.601Z,12.40
2018-04-25T06:49:59.357Z,12.50
2018-04-25T06:52:33.109Z,12.60
2018-04-25T06:55:10.792Z,12.50
2018-04-25T06:57:44.608Z,12.60
2018-04-25T07:00:18.364Z,12.70
2018-04-25T07:02:53.109Z,12.80
2018-04-25T07:05:28.345Z,12.90
2018-04-25T07:08:02.173Z,12.80
2018-04-25T07:10:36.829Z,13.00
2018-04-25T07:13:11.343Z,13.00
2018-04-25T07:15:45.858Z,13.10
2018-04-25T07:18:20.613Z,13.10
2018-04-25T07:20:54.366Z,13.20
2018-04-25T07:23:29.108Z,13.30
2018-04-25T07:26:03.854Z,13.40
2018-04-25T07:28:39.338Z,13.60
2018-04-25T07:31:14.064Z,13.60
2018-04-25T07:33:48.798Z,13.80
2018-04-25T07:36:22.570Z,14.00
2018-04-25T07:38:57.306Z,14.30
2018-04-25T07:41:32.027Z,14.60
2018-04-25T07:44:05.784Z,14.80
2018-04-25T07:46:39.544Z,14.70
2018-04-25T07:49:13.307Z,14.70
2018-04-25T07:51:47.836Z,14.70
2018-04-25T07:54:22.357Z,14.50
2018-04-25T07:56:56.877Z,14.50
2018-04-25T07:59:32.348Z,14.40
2018-04-25T08:02:06.105Z,14.40
2018-04-25T08:04:39.865Z,14.50
2018-04-25T08:07:13.628Z,14.60
2018-04-25T08:09:51.535Z,14.40
2018-04-25T08:12:37.124Z,14.30
2018-04-25T08:15:22.151Z,14.20
2018-04-25T08:18:09.688Z,14.10
2018-04-25T08:23:56.840Z,13.80
2018-04-25T08:26:32.335Z,13.70
2018-04-25T08:29:07.083Z,13.70
2018-04-25T08:31:41.721Z,13.80
2018-04-25T08:34:16.494Z,14.10
2018-04-25T08:36:50.415Z,14.40
2018-04-25T08:39:25.089Z,14.70
2018-04-25T08:41:59.643Z,15.00
2018-04-25T08:44:34.389Z,14.90
2018-04-25T08:47:09.227Z,15.50
2018-04-25T08:49:42.985Z,16.50
2018-04-25T08:52:17.738Z,16.90
2018-04-25T08:54:52.467Z,16.80
2018-04-25T08:57:26.310Z,16.40
2018-04-25T09:00:00.068Z,16.40
2018-04-25T09:02:36.161Z,16.20
2018-04-25T09:05:09.719Z,16.10
2018-04-25T09:07:44.449Z,16.00
2018-04-25T09:10:19.168Z,16.20
2018-04-25T09:12:53.904Z,16.10
2018-04-25T09:15:27.764Z,16.20
2018-04-25T09:18:01.673Z,16.40
2018-04-25T09:20:36.191Z,17.10
2018-04-25T09:23:11.645Z,17.90
2018-04-25T09:25:46.205Z,17.90
2018-04-25T09:28:21.506Z,19.10
2018-04-25T09:30:55.600Z,19.30
2018-04-25T09:33:30.889Z,18.90
2018-04-25T09:36:04.859Z,18.20
2018-04-25T09:38:39.371Z,17.10
2018-04-25T09:41:13.161Z,17.10
2018-04-25T09:43:47.888Z,16.90
2018-04-25T09:46:23.200Z,16.90
2018-04-25T09:48:56.960Z,16.90
2018-04-25T09:51:31.286Z,17.00
2018-04-25T09:54:05.588Z,16.90
2018-04-25T09:56:40.850Z,16.80
2018-04-25T09:59:14.617Z,16.80
2018-04-25T10:01:54.436Z,16.60
2018-04-25T10:04:28.200Z,17.10
2018-04-25T10:07:02.900Z,16.80
2018-04-25T10:09:37.412Z,16.30
2018-04-25T10:12:11.717Z,16.40
2018-04-25T10:14:45.474Z,16.30
2018-04-25T10:17:20.286Z,16.30
2018-04-25T10:19:54.173Z,16.30
2018-04-25T10:22:29.670Z,16.30
2018-04-25T10:25:03.424Z,16.20
2018-04-25T10:27:38.155Z,15.90
2018-04-25T10:30:12.669Z,15.30
2018-04-25T10:32:46.418Z,15.30
2018-04-25T10:35:21.153Z,15.00
2018-04-25T10:37:54.917Z,14.80
2018-04-25T10:40:28.755Z,14.60
2018-04-25T10:43:05.799Z,14.60
2018-04-25T10:45:40.535Z,14.40
2018-04-25T10:48:14.282Z,14.20
2018-04-25T10:50:48.033Z,14.10
2018-04-25T10:53:22.743Z,14.00
2018-04-25T10:55:57.471Z,14.20
2018-04-25T10:58:31.985Z,14.10
2018-04-25T11:01:06.679Z,14.10
2018-04-25T11:03:40.434Z,13.80
2018-04-25T11:06:14.186Z,13.50
2018-04-25T11:08:48.916Z,13.40
2018-04-25T11:11:22.673Z,13.20
2018-04-25T11:13:57.408Z,13.10
2018-04-25T11:16:31.153Z,12.90
2018-04-25T11:19:04.953Z,12.80
2018-04-25T11:21:38.699Z,12.80
2018-04-25T11:24:12.234Z,13.00
2018-04-25T11:26:45.760Z,13.30
2018-04-25T11:29:19.522Z,13.40
2018-04-25T11:31:53.340Z,13.50
2018-04-25T11:34:28.004Z,13.50
2018-04-25T11:37:02.518Z,13.40
2018-04-25T11:39:37.241Z,13.30
2018-04-25T11:42:10.988Z,13.10
2018-04-25T11:44:44.760Z,12.90
2018-04-25T11:47:20.312Z,12.60
2018-04-25T11:49:53.854Z,12.60
2018-04-25T11:52:27.621Z,12.50
2018-04-25T11:55:03.100Z,12.50
2018-04-25T11:57:36.849Z,12.50
2018-04-25T12:00:10.961Z,12.60
2018-04-25T12:02:44.736Z,12.50
2018-04-25T12:05:18.510Z,12.40
2018-04-25T12:07:53.217Z,12.10
2018-04-25T12:10:26.972Z,11.90
2018-04-25T12:13:00.812Z,11.60
2018-04-25T12:15:34.672Z,11.50
2018-04-25T12:18:09.409Z,11.50
2018-04-25T12:20:44.133Z,11.50
2018-04-25T12:23:18.839Z,11.40
2018-04-25T12:25:52.618Z,11.40
2018-04-25T12:28:27.337Z,11.40
2018-04-25T12:31:01.092Z,11.60
2018-04-25T12:33:35.819Z,11.70
2018-04-25T12:36:09.588Z,11.70
2018-04-25T12:38:43.344Z,11.70
2018-04-25T12:41:17.099Z,11.60
2018-04-25T12:43:50.852Z,11.50
2018-04-25T12:46:24.618Z,11.20
2018-04-25T12:48:58.397Z,11.10
2018-04-25T12:51:33.108Z,11.00
2018-04-25T12:54:07.627Z,10.60
2018-04-25T12:56:41.935Z,10.40
2018-04-25T12:59:16.447Z,10.10
2018-04-25T13:01:50.204Z,10.10
2018-04-25T13:04:23.952Z,10.00
2018-04-25T13:06:57.712Z,9.90
2018-04-25T13:09:36.354Z,10.20
2018-04-25T13:12:10.111Z,10.10
2018-04-25T13:14:43.861Z,10.30
2018-04-25T13:17:18.580Z,10.30
2018-04-25T13:19:53.256Z,10.40
2018-04-25T13:22:27.012Z,10.60
2018-04-25T13:25:01.747Z,10.80
2018-04-25T13:27:35.500Z,11.10
2018-04-25T13:30:09.252Z,11.80
2018-04-25T13:32:43.012Z,11.80
2018-04-25T13:35:17.986Z,11.80
2018-04-25T13:37:52.797Z,11.70
2018-04-25T13:40:28.448Z,11.70
2018-04-25T13:43:02.212Z,11.70
2018-04-25T13:45:36.918Z,11.80
2018-04-25T13:48:12.428Z,12.30
2018-04-25T13:50:45.967Z,12.60
2018-04-25T13:53:20.305Z,12.90
2018-04-25T13:55:55.776Z,13.00
2018-04-25T13:58:29.524Z,13.00
2018-04-25T14:01:04.048Z,12.90
2018-04-25T14:03:39.549Z,12.70
2018-04-25T14:06:13.353Z,12.70
2018-04-25T14:08:47.361Z,12.60
2018-04-25T14:11:21.867Z,12.80
2018-04-25T14:13:56.536Z,13.00
2018-04-25T14:16:31.053Z,13.50
2018-04-25T14:19:04.829Z,13.50
2018-04-25T14:21:38.577Z,13.20
2018-04-25T14:24:14.070Z,12.00
2018-04-25T14:26:47.815Z,12.00
2018-04-25T14:29:22.335Z,11.60
2018-04-25T14:31:56.916Z,11.60
2018-04-25T14:34:30.684Z,11.60
2018-04-25T14:37:04.433Z,11.90
2018-04-25T14:39:38.805Z,12.60
2018-04-25T14:42:13.498Z,12.80
2018-04-25T14:44:48.217Z,12.80
2018-04-25T14:47:27.381Z,12.80
2018-04-25T14:50:01.190Z,12.60
2018-04-25T14:52:34.937Z,12.40
2018-04-25T14:55:09.658Z,12.50
2018-04-25T14:57:43.412Z,12.90
2018-04-25T15:00:17.161Z,13.20
2018-04-25T15:02:50.912Z,13.30
2018-04-25T15:05:25.508Z,13.20
2018-04-25T15:08:00.207Z,13.20
2018-04-25T15:10:33.949Z,13.00
2018-04-25T15:16:14.624Z,12.90
2018-04-25T15:18:59.423Z,12.50
2018-04-25T15:27:14.557Z,12.10
2018-04-25T15:32:45.092Z,12.00
2018-04-25T15:35:21.000Z,12.20
2018-04-25T15:37:59.322Z,12.40
2018-04-25T15:40:37.331Z,12.30
2018-04-25T15:43:12.131Z,12.50
2018-04-25T15:45:46.769Z,12.50
2018-04-25T15:48:21.169Z,12.60
2018-04-25T15:50:54.651Z,12.70
2018-04-25T15:53:28.124Z,12.70
2018-04-25T15:56:02.742Z,12.50
2018-04-25T15:58:38.204Z,12.40
2018-04-25T16:01:11.876Z,12.40
2018-04-25T16:03:45.583Z,12.20
2018-04-25T16:06:23.883Z,12.10
2018-04-25T16:08:57.313Z,12.00
2018-04-25T16:11:31.095Z,12.00
2018-04-25T16:14:05.514Z,12.10
2018-04-25T16:16:39.182Z,12.20
2018-04-25T16:19:12.880Z,12.20
2018-04-25T16:21:46.543Z,12.00
2018-04-25T16:24:20.453Z,11.80
2018-04-25T16:26:55.131Z,11.70
2018-04-25T16:29:30.538Z,11.60
2018-04-25T16:34:46.187Z,11.50
2018-04-25T16:37:19.848Z,11.60
2018-04-25T16:39:54.480Z,11.50
2018-04-25T16:42:28.915Z,11.30
2018-04-25T16:45:04.343Z,11.20
2018-04-25T16:47:39.808Z,11.10
2018-04-25T16:50:13.876Z,11.10
2018-04-25T16:52:48.488Z,11.10
2018-04-25T16:55:22.156Z,11.10
2018-04-25T16:57:55.788Z,11.20
2018-04-25T17:00:39.286Z,11.20
2018-04-25T17:03:16.096Z,11.40
2018-04-25T17:05:52.660Z,11.50
2018-04-25T17:08:28.504Z,11.50
2018-04-25T17:11:02.239Z,11.50
2018-04-25T17:13:39.213Z,11.50
2018-04-25T17:16:12.994Z,11.10
2018-04-25T17:18:46.626Z,11.10
2018-04-25T17:21:20.303Z,10.90
2018-04-25T17:23:54.733Z,10.80
2018-04-25T17:26:28.827Z,10.70
2018-04-25T17:29:02.467Z,10.60
2018-04-25T17:31:36.195Z,10.60
2018-04-25T17:34:10.799Z,10.60
2018-04-25T17:36:48.798Z,10.60
2018-04-25T17:39:26.060Z,10.60
2018-04-25T17:42:00.780Z,10.60
2018-04-25T17:44:36.002Z,10.60
2018-04-25T17:47:09.739Z,10.60
2018-04-25T17:49:43.184Z,10.60
2018-04-25T17:52:16.988Z,10.50
2018-04-25T17:54:50.615Z,10.50
2018-04-25T17:57:24.317Z,10.40
2018-04-25T17:59:58.123Z,10.30
2018-04-25T18:02:32.782Z,10.10
2018-04-25T18:05:07.199Z,9.60
2018-04-25T18:07:41.624Z,9.40
2018-04-25T18:10:16.211Z,9.40
2018-04-25T18:12:49.873Z,9.20
2018-04-25T18:15:25.249Z,8.90
2018-04-25T18:17:59.860Z,8.80
2018-04-25T18:20:33.485Z,8.80
2018-04-25T18:23:07.174Z,8.60
2018-04-25T18:25:40.799Z,8.60
2018-04-25T18:28:14.459Z,8.50
2018-04-25T18:30:48.091Z,8.40
2018-04-25T18:33:21.763Z,8.30
2018-04-25T18:35:55.192Z,8.20
2018-04-25T18:38:29.304Z,8.20
2018-04-25T18:41:02.941Z,8.10
2018-04-25T18:43:36.606Z,8.00
2018-04-25T18:46:10.231Z,8.00
2018-04-25T18:48:44.867Z,7.90
2018-04-25T18:51:18.496Z,7.90
2018-04-25T18:53:52.226Z,7.90
2018-04-25T18:56:26.858Z,7.90
2018-04-25T18:59:00.531Z,7.90
2018-04-25T19:01:34.160Z,7.90
2018-04-25T19:04:08.604Z,7.70
2018-04-25T19:06:42.978Z,7.70
2018-04-25T19:09:16.653Z,7.60
2018-04-25T19:11:50.284Z,7.40
2018-04-25T19:14:24.908Z,7.40
2018-04-25T19:16:58.556Z,7.20
2018-04-25T19:19:33.177Z,7.10
2018-04-25T19:22:06.796Z,7.10
2018-04-25T19:27:31.259Z,7.10
2018-04-25T19:30:09.990Z,7.00
2018-04-25T19:32:44.463Z,6.90
2018-04-25T19:35:18.127Z,6.90
2018-04-25T19:37:51.743Z,6.80
2018-04-25T19:40:25.395Z,6.70
2018-04-25T19:42:59.784Z,6.60
2018-04-25T19:45:34.712Z,6.50
2018-04-25T19:48:09.087Z,6.50
2018-04-25T19:50:42.764Z,6.50
2018-04-25T19:53:17.745Z,6.50
2018-04-25T19:55:52.627Z,6.50
2018-04-25T19:58:27.985Z,6.60
2018-04-25T20:01:02.631Z,6.50
2018-04-25T20:03:36.253Z,6.60
2018-04-25T20:06:09.914Z,6.60
2018-04-25T20:08:43.552Z,6.50
2018-04-25T20:11:18.191Z,6.50
2018-04-25T20:13:51.890Z,6.60
2018-04-25T20:16:27.430Z,6.60
2018-04-25T20:19:01.072Z,6.60
2018-04-25T20:21:36.402Z,6.50
2018-04-25T20:24:15.803Z,6.50
2018-04-25T20:26:50.534Z,6.40
2018-04-25T20:29:25.144Z,6.30
2018-04-25T20:31:58.805Z,6.30
2018-04-25T20:34:32.429Z,6.20
2018-04-25T20:37:07.072Z,6.10
2018-04-25T20:39:41.879Z,6.10
2018-04-25T20:42:16.531Z,6.10
2018-04-25T20:45:01.884Z,6.20
2018-04-25T20:47:36.754Z,6.20
2018-04-25T20:50:14.512Z,6.20
2018-04-25T20:52:48.937Z,6.20
2018-04-25T20:55:22.558Z,6.20
2018-04-25T20:58:00.018Z,6.20
2018-04-25T21:00:34.218Z,6.20
2018-04-25T21:03:17.338Z,6.10
2018-04-25T21:05:53.444Z,6.10
2018-04-25T21:08:28.956Z,6.10
2018-04-25T21:11:09.490Z,6.10
2018-04-25T21:13:48.733Z,6.10
2018-04-25T21:16:23.044Z,6.10
2018-04-25T21:18:56.872Z,6.20
2018-04-25T21:21:32.229Z,6.20
2018-04-25T21:24:05.870Z,6.20
2018-04-25T21:26:39.542Z,6.20
2018-04-25T21:29:13.178Z,6.20
2018-04-25T21:31:46.836Z,6.20
2018-04-25T21:34:20.488Z,6.20
2018-04-25T21:36:56.923Z,6.20
2018-04-25T21:39:32.329Z,6.30
2018-04-25T21:42:05.960Z,6.30
2018-04-25T21:44:40.755Z,6.50
2018-04-25T21:47:16.029Z,6.70
2018-04-25T21:49:49.449Z,6.90
2018-04-25T21:52:23.020Z,7.00
2018-04-25T21:54:56.652Z,7.20
2018-04-25T21:57:30.328Z,7.30
2018-04-25T22:00:04.426Z,7.40
2018-04-25T22:02:38.109Z,7.50
2018-04-25T22:05:11.732Z,7.60
2018-04-25T22:07:45.397Z,7.70
2018-04-25T22:10:19.016Z,7.80
2018-04-25T22:12:52.680Z,7.90
2018-04-25T22:15:26.306Z,8.00
2018-04-25T22:17:59.967Z,8.00
2018-04-25T22:20:33.598Z,8.10
2018-04-25T22:23:08.228Z,8.10
2018-04-25T22:25:42.848Z,8.20
2018-04-25T22:28:18.421Z,8.30
2018-04-25T22:30:52.040Z,8.30
2018-04-25T22:33:25.698Z,8.40
2018-04-25T22:36:00.283Z,8.40
2018-04-25T22:38:33.947Z,8.30
2018-04-25T22:41:08.550Z,8.40
2018-04-25T22:43:43.191Z,8.40
2018-04-25T22:46:16.830Z,8.40
2018-04-25T22:48:50.557Z,8.50
2018-04-25T22:51:24.303Z,8.50
2018-04-25T22:53:57.961Z,8.50
2018-04-25T22:56:31.580Z,8.50
2018-04-25T22:59:05.236Z,8.60
2018-04-25T23:01:38.858Z,8.50
2018-04-25T23:04:12.530Z,8.50
2018-04-25T23:06:46.912Z,8.50
2018-04-25T23:09:21.579Z,8.50
2018-04-25T23:11:55.204Z,8.50
2018-04-25T23:14:28.953Z,8.40
2018-04-25T23:17:03.561Z,8.30
2018-04-25T23:19:37.231Z,8.30
2018-04-25T23:22:14.383Z,8.20
2018-04-25T23:24:48.812Z,8.10
2018-04-25T23:27:23.387Z,8.00
2018-04-25T23:29:57.069Z,8.00
2018-04-25T23:32:30.699Z,7.90
2018-04-25T23:35:04.364Z,7.70
2018-04-25T23:37:38.751Z,7.60
2018-04-25T23:40:12.417Z,7.60
2018-04-25T23:42:47.014Z,7.60
2018-04-25T23:45:20.719Z,7.50
2018-04-25T23:47:54.351Z,7.60
2018-04-25T23:50:28.973Z,7.50
2018-04-25T23:53:02.382Z,7.50
2018-04-25T23:55:36.819Z,7.60
2018-04-25T23:58:11.417Z,7.60
